createdAt,value
2018-03-24T00:01:21.292Z,92.50
2018-03-24T00:03:49.116Z,92.70
2018-03-24T00:06:16.916Z,92.60
2018-03-24T00:08:44.764Z,92.50
2018-03-24T00:11:13.179Z,92.60
2018-03-24T00:13:40.926Z,92.50
2018-03-24T00:16:08.587Z,92.80
2018-03-24T00:18:36.250Z,92.80
2018-03-24T00:21:04.085Z,92.70
2018-03-24T00:23:31.798Z,92.70
2018-03-24T00:25:59.496Z,92.80
2018-03-24T00:28:27.216Z,92.70
2018-03-24T00:30:54.971Z,92.90
2018-03-24T00:33:22.746Z,92.80
2018-03-24T00:35:50.397Z,92.80
2018-03-24T00:38:18.124Z,92.80
2018-03-24T00:40:45.794Z,92.80
2018-03-24T00:43:14.254Z,93.10
2018-03-24T00:45:42.001Z,93.10
2018-03-24T00:48:09.657Z,93.10
2018-03-24T00:50:37.259Z,93.10
2018-03-24T00:53:05.736Z,93.40
2018-03-24T00:55:34.169Z,93.20
2018-03-24T00:58:01.846Z,93.20
2018-03-24T01:00:29.574Z,93.20
2018-03-24T01:02:57.324Z,93.30
2018-03-24T01:05:25.047Z,93.20
2018-03-24T01:07:53.493Z,93.20
2018-03-24T01:10:21.125Z,93.20
2018-03-24T01:12:48.833Z,92.90
2018-03-24T01:15:16.750Z,92.90
2018-03-24T01:17:45.237Z,92.80
2018-03-24T01:20:12.881Z,92.80
2018-03-24T01:22:42.547Z,93.00
2018-03-24T01:25:10.214Z,92.80
2018-03-24T01:27:37.914Z,93.10
2018-03-24T01:30:06.518Z,93.20
2018-03-24T01:32:34.320Z,93.10
2018-03-24T01:35:02.045Z,93.50
2018-03-24T01:37:29.700Z,93.30
2018-03-24T01:39:57.338Z,93.10
2018-03-24T01:42:25.873Z,93.30
2018-03-24T01:44:53.696Z,93.30
2018-03-24T01:47:22.161Z,93.40
2018-03-24T01:49:49.809Z,93.40
2018-03-24T01:52:17.513Z,93.30
2018-03-24T01:54:45.197Z,93.40
2018-03-24T01:57:13.365Z,93.90
2018-03-24T01:59:41.028Z,93.70
2018-03-24T02:02:08.810Z,93.80
2018-03-24T02:04:36.499Z,93.40
2018-03-24T02:07:04.150Z,93.60
2018-03-24T02:09:31.913Z,93.60
2018-03-24T02:11:59.566Z,93.50
2018-03-24T02:14:27.279Z,93.70
2018-03-24T02:16:55.711Z,94.30
2018-03-24T02:19:23.424Z,93.90
2018-03-24T02:21:51.086Z,94.10
2018-03-24T02:24:18.772Z,93.90
2018-03-24T02:26:46.495Z,94.10
2018-03-24T02:29:15.231Z,93.70
2018-03-24T02:31:42.920Z,93.70
2018-03-24T02:34:10.679Z,93.80
2018-03-24T02:36:38.368Z,93.60
2018-03-24T02:39:06.069Z,93.60
2018-03-24T02:41:33.818Z,93.60
2018-03-24T02:44:01.677Z,93.70
2018-03-24T02:46:30.221Z,93.80
2018-03-24T02:48:57.908Z,93.90
2018-03-24T02:51:26.348Z,94.10
2018-03-24T02:53:54.040Z,94.10
2018-03-24T02:56:22.432Z,94.20
2018-03-24T02:58:50.944Z,94.30
2018-03-24T03:01:19.532Z,94.30
2018-03-24T03:03:47.176Z,94.50
2018-03-24T03:06:14.902Z,94.60
2018-03-24T03:08:42.596Z,94.60
2018-03-24T03:11:10.277Z,94.70
2018-03-24T03:13:37.981Z,94.80
2018-03-24T03:16:05.745Z,94.80
2018-03-24T03:18:33.438Z,94.70
2018-03-24T03:21:01.990Z,94.70
2018-03-24T03:23:29.660Z,94.70
2018-03-24T03:25:57.316Z,94.70
2018-03-24T03:28:24.993Z,94.70
2018-03-24T03:31:08.164Z,94.80
2018-03-24T03:33:36.130Z,94.80
2018-03-24T03:36:03.768Z,94.90
2018-03-24T03:38:31.431Z,95.00
2018-03-24T03:40:59.140Z,95.00
2018-03-24T03:43:26.897Z,95.00
2018-03-24T03:45:54.611Z,95.10
2018-03-24T03:48:22.356Z,95.30
2018-03-24T03:50:50.129Z,95.30
2018-03-24T03:53:18.575Z,95.60
2018-03-24T03:55:46.272Z,95.60
2018-03-24T03:58:14.453Z,95.60
2018-03-24T04:00:42.859Z,95.80
2018-03-24T04:03:10.493Z,95.80
2018-03-24T04:05:38.987Z,95.90
2018-03-24T04:08:06.699Z,95.90
2018-03-24T04:10:34.346Z,95.90
2018-03-24T04:13:03.332Z,96.00
2018-03-24T04:15:31.069Z,96.10
2018-03-24T04:17:58.837Z,96.10
2018-03-24T04:20:26.540Z,96.20
2018-03-24T04:22:54.199Z,96.40
2018-03-24T04:25:21.871Z,96.40
2018-03-24T04:27:49.519Z,96.70
2018-03-24T04:30:17.353Z,96.90
2018-03-24T04:32:45.015Z,97.00
2018-03-24T04:35:12.675Z,97.40
2018-03-24T04:37:40.593Z,97.40
2018-03-24T04:40:08.342Z,97.40
2018-03-24T04:42:36.159Z,97.40
2018-03-24T04:45:03.779Z,97.40
2018-03-24T04:47:32.276Z,97.60
2018-03-24T04:49:59.933Z,97.70
2018-03-24T04:52:27.625Z,97.60
2018-03-24T04:54:55.277Z,97.60
2018-03-24T04:57:22.948Z,97.60
2018-03-24T04:59:50.703Z,97.60
2018-03-24T05:02:18.501Z,97.50
2018-03-24T05:04:46.315Z,97.50
2018-03-24T05:07:13.971Z,97.60
2018-03-24T05:09:42.104Z,97.90
2018-03-24T05:12:09.751Z,98.00
2018-03-24T05:14:37.431Z,97.90
2018-03-24T05:17:05.157Z,97.80
2018-03-24T05:19:33.024Z,97.80
2018-03-24T05:22:00.780Z,97.80
2018-03-24T05:24:28.423Z,97.70
2018-03-24T05:26:56.875Z,97.80
2018-03-24T05:29:25.512Z,97.80
2018-03-24T05:31:53.451Z,97.90
2018-03-24T05:34:21.334Z,98.00
2018-03-24T05:36:49.770Z,98.40
2018-03-24T05:39:17.461Z,98.40
2018-03-24T05:41:45.883Z,98.60
2018-03-24T05:44:13.705Z,98.60
2018-03-24T05:46:41.361Z,98.80
2018-03-24T05:49:09.061Z,98.90
2018-03-24T05:51:36.827Z,98.90
2018-03-24T05:54:04.453Z,98.90
2018-03-24T05:56:32.880Z,98.50
2018-03-24T05:59:00.657Z,98.50
2018-03-24T06:01:28.346Z,98.60
2018-03-24T06:03:56.763Z,98.60
2018-03-24T06:06:24.451Z,98.60
2018-03-24T06:08:52.305Z,98.30
2018-03-24T06:11:20.025Z,98.30
2018-03-24T06:13:48.468Z,97.90
2018-03-24T06:16:17.300Z,97.90
2018-03-24T06:18:45.776Z,97.60
2018-03-24T06:21:13.442Z,97.60
2018-03-24T06:23:41.843Z,97.40
2018-03-24T06:26:09.577Z,97.40
2018-03-24T06:28:37.264Z,97.10
2018-03-24T06:31:06.898Z,97.00
2018-03-24T06:33:34.582Z,96.90
2018-03-24T06:36:02.462Z,96.70
2018-03-24T06:38:30.121Z,96.40
2018-03-24T06:40:57.928Z,96.20
2018-03-24T06:43:25.584Z,95.40
2018-03-24T06:45:53.204Z,95.10
2018-03-24T06:48:22.076Z,95.10
2018-03-24T06:50:49.704Z,95.00
2018-03-24T06:53:17.376Z,94.80
2018-03-24T06:55:46.199Z,94.50
2018-03-24T06:58:13.882Z,94.20
2018-03-24T07:00:42.308Z,93.30
2018-03-24T07:03:09.972Z,92.50
2018-03-24T07:05:37.650Z,93.10
2018-03-24T07:08:05.303Z,93.20
2018-03-24T07:10:33.028Z,93.10
2018-03-24T07:13:01.417Z,91.80
2018-03-24T07:15:29.042Z,91.80
2018-03-24T07:17:56.732Z,91.60
2018-03-24T07:20:25.961Z,90.50
2018-03-24T07:22:53.592Z,90.50
2018-03-24T07:25:21.238Z,89.20
2018-03-24T07:27:48.887Z,87.60
2018-03-24T07:30:16.623Z,87.70
2018-03-24T07:32:44.331Z,85.00
2018-03-24T07:35:12.000Z,82.40
2018-03-24T07:37:39.823Z,78.00
2018-03-24T07:40:07.486Z,75.80
2018-03-24T07:42:35.169Z,75.60
2018-03-24T07:45:02.792Z,75.10
2018-03-24T07:47:30.511Z,74.40
2018-03-24T07:49:58.178Z,75.10
2018-03-24T07:52:25.808Z,75.30
2018-03-24T07:54:53.480Z,74.20
2018-03-24T07:57:21.380Z,74.60
2018-03-24T07:59:49.101Z,76.00
2018-03-24T08:02:16.737Z,75.40
2018-03-24T08:04:44.666Z,72.00
2018-03-24T08:07:12.388Z,68.20
2018-03-24T08:09:40.200Z,66.30
2018-03-24T08:12:07.797Z,67.80
2018-03-24T08:14:35.442Z,68.60
2018-03-24T08:17:03.182Z,67.50
2018-03-24T08:19:30.869Z,64.50
2018-03-24T08:21:58.594Z,65.30
2018-03-24T08:24:26.318Z,62.40
2018-03-24T08:26:53.975Z,60.50
2018-03-24T08:29:21.655Z,59.80
2018-03-24T08:31:49.294Z,57.40
2018-03-24T08:34:16.941Z,57.30
2018-03-24T08:36:44.705Z,59.30
2018-03-24T08:39:12.431Z,62.30
2018-03-24T08:41:40.929Z,59.70
2018-03-24T08:44:08.586Z,59.70
2018-03-24T08:46:36.353Z,58.10
2018-03-24T08:49:04.000Z,57.00
2018-03-24T08:51:31.748Z,57.00
2018-03-24T08:54:00.205Z,57.50
2018-03-24T08:56:27.948Z,57.40
2018-03-24T08:58:55.643Z,56.70
2018-03-24T09:01:23.595Z,58.80
2018-03-24T09:03:51.350Z,58.60
2018-03-24T09:06:19.011Z,58.60
2018-03-24T09:08:46.740Z,56.80
2018-03-24T09:11:14.324Z,54.60
2018-03-24T09:13:42.061Z,54.60
2018-03-24T09:16:09.719Z,54.60
2018-03-24T09:18:37.461Z,54.80
2018-03-24T09:21:07.086Z,60.90
2018-03-24T09:23:34.964Z,60.90
2018-03-24T09:26:02.682Z,59.80
2018-03-24T09:28:30.437Z,61.00
2018-03-24T09:30:58.349Z,59.10
2018-03-24T09:33:26.008Z,59.60
2018-03-24T09:35:53.701Z,57.20
2018-03-24T09:38:21.412Z,57.10
2018-03-24T09:40:49.846Z,56.10
2018-03-24T09:43:18.534Z,56.10
2018-03-24T09:45:46.259Z,54.80
2018-03-24T09:48:14.064Z,54.80
2018-03-24T09:50:41.771Z,53.90
2018-03-24T09:53:09.463Z,50.20
2018-03-24T09:55:37.219Z,47.90
2018-03-24T09:58:05.885Z,49.90
2018-03-24T10:00:33.561Z,50.10
2018-03-24T10:03:01.502Z,49.10
2018-03-24T10:05:29.157Z,49.90
2018-03-24T10:07:56.891Z,50.20
2018-03-24T10:10:25.220Z,49.20
2018-03-24T10:12:52.893Z,49.20
2018-03-24T10:15:20.627Z,47.40
2018-03-24T10:17:48.314Z,47.20
2018-03-24T10:20:16.044Z,47.50
2018-03-24T10:22:55.323Z,48.90
2018-03-24T10:25:23.000Z,50.10
2018-03-24T10:27:50.657Z,49.00
2018-03-24T10:30:18.419Z,45.70
2018-03-24T10:32:46.128Z,44.00
2018-03-24T10:35:13.814Z,46.20
2018-03-24T10:37:47.032Z,47.80
2018-03-24T10:40:14.669Z,49.40
2018-03-24T10:45:42.394Z,48.60
2018-03-24T10:48:10.124Z,47.30
2018-03-24T10:50:37.811Z,47.20
2018-03-24T10:53:05.881Z,50.10
2018-03-24T10:55:33.576Z,48.40
2018-03-24T10:58:01.347Z,47.60
2018-03-24T11:00:32.944Z,46.40
2018-03-24T11:03:00.745Z,46.10
2018-03-24T11:05:28.431Z,50.30
2018-03-24T11:07:56.092Z,49.90
2018-03-24T11:10:23.759Z,50.90
2018-03-24T11:12:51.628Z,52.10
2018-03-24T11:15:20.150Z,44.70
2018-03-24T11:17:47.847Z,44.60
2018-03-24T11:20:15.639Z,42.10
2018-03-24T11:22:43.550Z,41.80
2018-03-24T11:25:11.202Z,41.80
2018-03-24T11:27:38.917Z,45.50
2018-03-24T11:30:06.694Z,48.10
2018-03-24T11:32:34.377Z,50.00
2018-03-24T11:35:02.106Z,52.10
2018-03-24T11:37:30.155Z,52.00
2018-03-24T11:39:57.854Z,51.30
2018-03-24T11:42:31.016Z,49.60
2018-03-24T11:44:58.814Z,49.60
2018-03-24T11:47:27.188Z,48.40
2018-03-24T11:49:54.816Z,48.40
2018-03-24T11:52:22.639Z,48.40
2018-03-24T11:54:50.525Z,48.80
2018-03-24T11:57:18.739Z,49.10
2018-03-24T11:59:46.427Z,49.20
2018-03-24T12:02:14.239Z,49.40
2018-03-24T12:04:41.954Z,48.10
2018-03-24T12:07:12.053Z,48.60
2018-03-24T12:09:40.544Z,48.60
2018-03-24T12:12:08.990Z,49.30
2018-03-24T12:14:36.658Z,49.30
2018-03-24T12:17:04.298Z,49.40
2018-03-24T12:19:32.074Z,49.30
2018-03-24T12:21:59.804Z,49.50
2018-03-24T12:24:27.449Z,49.80
2018-03-24T12:26:55.741Z,49.30
2018-03-24T12:29:23.495Z,49.50
2018-03-24T12:31:51.176Z,49.50
2018-03-24T12:34:19.443Z,48.90
2018-03-24T12:36:47.402Z,49.20
2018-03-24T12:39:15.044Z,48.50
2018-03-24T12:41:43.507Z,50.10
2018-03-24T12:44:11.930Z,51.10
2018-03-24T12:46:39.640Z,51.00
2018-03-24T12:49:07.528Z,50.90
2018-03-24T12:51:35.406Z,51.00
2018-03-24T12:54:03.151Z,49.80
2018-03-24T12:56:32.384Z,49.10
2018-03-24T12:59:00.148Z,48.50
2018-03-24T13:01:27.844Z,48.90
2018-03-24T13:03:55.706Z,48.70
2018-03-24T13:06:23.470Z,48.50
2018-03-24T13:08:51.396Z,47.60
2018-03-24T13:11:19.134Z,43.00
2018-03-24T13:13:47.818Z,38.40
2018-03-24T13:16:15.708Z,38.50
2018-03-24T13:18:43.412Z,36.60
2018-03-24T13:21:11.141Z,35.60
2018-03-24T13:23:38.805Z,38.10
2018-03-24T13:26:06.500Z,40.70
2018-03-24T13:28:34.170Z,42.70
2018-03-24T13:31:01.849Z,43.90
2018-03-24T13:33:31.256Z,45.00
2018-03-24T13:35:59.155Z,46.30
2018-03-24T13:38:26.808Z,46.30
2018-03-24T13:40:54.556Z,45.40
2018-03-24T13:43:23.267Z,46.20
2018-03-24T13:45:50.972Z,46.20
2018-03-24T13:48:18.632Z,46.20
2018-03-24T13:50:47.460Z,47.00
2018-03-24T13:53:15.139Z,47.00
2018-03-24T13:55:42.800Z,48.00
2018-03-24T13:58:10.557Z,47.90
2018-03-24T14:00:39.439Z,47.60
2018-03-24T14:03:08.015Z,47.90
2018-03-24T14:05:36.501Z,49.20
2018-03-24T14:08:04.944Z,48.30
2018-03-24T14:10:32.702Z,48.30
2018-03-24T14:13:00.449Z,48.00
2018-03-24T14:15:28.749Z,48.00
2018-03-24T14:17:56.461Z,48.70
2018-03-24T14:20:24.944Z,48.20
2018-03-24T14:22:52.656Z,48.20
2018-03-24T14:25:20.420Z,47.80
2018-03-24T14:27:48.186Z,48.10
2018-03-24T14:30:15.872Z,48.20
2018-03-24T14:32:44.369Z,48.40
2018-03-24T14:35:12.227Z,48.40
2018-03-24T14:37:40.702Z,48.80
2018-03-24T14:40:09.184Z,48.80
2018-03-24T14:42:39.411Z,49.80
2018-03-24T14:45:07.068Z,49.00
2018-03-24T14:47:34.741Z,49.10
2018-03-24T14:50:02.500Z,48.70
2018-03-24T14:52:30.186Z,48.50
2018-03-24T14:54:57.869Z,48.20
2018-03-24T14:57:25.624Z,48.00
2018-03-24T14:59:53.344Z,47.10
2018-03-24T15:02:21.054Z,47.70
2018-03-24T15:04:48.691Z,43.50
2018-03-24T15:07:16.964Z,41.50
2018-03-24T15:09:44.655Z,42.50
2018-03-24T15:12:12.639Z,43.60
2018-03-24T15:14:40.320Z,45.70
2018-03-24T15:17:08.125Z,46.60
2018-03-24T15:19:35.866Z,47.50
2018-03-24T15:22:03.953Z,47.80
2018-03-24T15:24:32.558Z,47.60
2018-03-24T15:27:01.628Z,47.80
2018-03-24T15:29:43.321Z,48.80
2018-03-24T15:32:23.878Z,49.00
2018-03-24T15:35:03.259Z,48.70
2018-03-24T15:37:30.975Z,49.10
2018-03-24T15:39:58.737Z,49.50
2018-03-24T15:42:26.433Z,49.50
2018-03-24T15:44:54.398Z,49.60
2018-03-24T15:47:22.106Z,49.30
2018-03-24T15:52:37.093Z,48.50
2018-03-24T15:55:05.538Z,45.60
2018-03-24T15:57:33.182Z,45.50
2018-03-24T16:00:00.879Z,44.60
2018-03-24T16:02:28.563Z,44.50
2018-03-24T16:04:56.961Z,46.10
2018-03-24T16:07:26.434Z,46.20
2018-03-24T16:09:54.130Z,47.10
2018-03-24T16:12:22.223Z,48.00
2018-03-24T16:14:49.897Z,48.40
2018-03-24T16:17:18.793Z,48.20
2018-03-24T16:19:46.456Z,48.10
2018-03-24T16:22:14.688Z,48.20
2018-03-24T16:24:42.369Z,48.40
2018-03-24T16:27:10.185Z,48.40
2018-03-24T16:29:38.041Z,48.60
2018-03-24T16:32:06.586Z,48.30
2018-03-24T16:34:34.446Z,48.40
2018-03-24T16:37:02.099Z,48.30
2018-03-24T16:39:29.767Z,48.50
2018-03-24T16:41:57.611Z,48.40
2018-03-24T16:44:26.130Z,49.10
2018-03-24T16:46:53.868Z,48.50
2018-03-24T16:49:21.575Z,48.50
2018-03-24T16:51:49.362Z,48.40
2018-03-24T16:54:17.019Z,48.50
2018-03-24T16:56:45.456Z,49.20
2018-03-24T16:59:13.208Z,49.10
2018-03-24T17:01:41.216Z,49.60
2018-03-24T17:04:09.800Z,49.60
2018-03-24T17:06:39.020Z,49.80
2018-03-24T17:09:07.533Z,50.60
2018-03-24T17:11:35.515Z,50.50
2018-03-24T17:14:03.657Z,50.40
2018-03-24T17:16:31.407Z,51.00
2018-03-24T17:18:59.375Z,51.20
2018-03-24T17:21:27.885Z,52.00
2018-03-24T17:23:55.598Z,51.90
2018-03-24T17:26:23.317Z,51.90
2018-03-24T17:28:51.088Z,52.20
2018-03-24T17:31:19.632Z,53.10
2018-03-24T17:33:48.083Z,53.90
2018-03-24T17:36:15.841Z,53.30
2018-03-24T17:38:43.723Z,53.70
2018-03-24T17:41:12.236Z,54.00
2018-03-24T17:43:40.857Z,55.20
2018-03-24T17:46:08.566Z,54.60
2018-03-24T17:48:37.183Z,55.10
2018-03-24T17:51:06.107Z,55.10
2018-03-24T17:53:33.877Z,55.20
2018-03-24T17:56:02.075Z,55.70
2018-03-24T17:58:29.887Z,55.70
2018-03-24T18:00:57.704Z,55.90
2018-03-24T18:03:26.263Z,56.50
2018-03-24T18:05:55.401Z,56.50
2018-03-24T18:08:23.152Z,56.70
2018-03-24T18:10:51.740Z,58.10
2018-03-24T18:13:19.957Z,57.50
2018-03-24T18:15:47.739Z,57.60
2018-03-24T18:18:15.660Z,58.10
2018-03-24T18:20:43.387Z,58.50
2018-03-24T18:23:11.280Z,58.60
2018-03-24T18:25:40.037Z,59.60
2018-03-24T18:28:07.866Z,59.60
2018-03-24T18:30:35.856Z,59.80
2018-03-24T18:33:03.734Z,60.60
2018-03-24T18:35:31.781Z,61.70
2018-03-24T18:38:00.387Z,62.10
2018-03-24T18:40:28.219Z,61.90
2018-03-24T18:42:55.949Z,62.60
2018-03-24T18:45:23.788Z,63.20
2018-03-24T18:47:51.485Z,64.30
2018-03-24T18:50:19.256Z,64.30
2018-03-24T18:52:47.076Z,64.30
2018-03-24T18:55:15.103Z,64.80
2018-03-24T18:57:42.780Z,65.40
2018-03-24T19:00:11.486Z,66.60
2018-03-24T19:02:39.361Z,66.20
2018-03-24T19:05:07.210Z,66.60
2018-03-24T19:07:35.739Z,66.90
2018-03-24T19:10:04.265Z,67.50
2018-03-24T19:12:32.552Z,67.60
2018-03-24T19:15:00.569Z,67.80
2018-03-24T19:17:29.226Z,68.60
2018-03-24T19:19:57.483Z,69.10
2018-03-24T19:22:26.143Z,69.20
2018-03-24T19:24:54.693Z,69.90
2018-03-24T19:27:23.042Z,70.70
2018-03-24T19:29:50.946Z,71.60
2018-03-24T19:32:18.749Z,72.50
2018-03-24T19:34:46.635Z,73.30
2018-03-24T19:37:15.151Z,74.30
2018-03-24T19:39:46.508Z,74.20
2018-03-24T19:42:15.443Z,73.80
2018-03-24T19:44:45.545Z,74.70
2018-03-24T19:47:13.772Z,74.80
2018-03-24T19:49:42.167Z,74.90
2018-03-24T19:52:11.438Z,75.60
2018-03-24T19:54:39.676Z,75.70
2018-03-24T19:57:07.627Z,75.60
2018-03-24T19:59:37.281Z,75.60
2018-03-24T20:02:07.446Z,75.60
2018-03-24T20:04:35.499Z,76.60
2018-03-24T20:07:04.850Z,75.70
2018-03-24T20:09:34.526Z,76.50
2018-03-24T20:12:03.940Z,77.00
2018-03-24T20:14:31.607Z,76.40
2018-03-24T20:17:01.423Z,76.30
2018-03-24T20:19:29.096Z,76.40
2018-03-24T20:21:58.402Z,76.40
2018-03-24T20:24:26.329Z,77.30
2018-03-24T20:26:54.201Z,77.50
2018-03-24T20:29:22.246Z,77.90
2018-03-24T20:31:51.710Z,78.30
2018-03-24T20:34:20.298Z,78.40
2018-03-24T20:36:48.066Z,78.90
2018-03-24T20:39:16.823Z,78.70
2018-03-24T20:41:44.574Z,79.40
2018-03-24T20:44:13.858Z,79.30
2018-03-24T20:46:41.694Z,78.90
2018-03-24T20:49:10.406Z,79.30
2018-03-24T20:51:42.737Z,80.10
2018-03-24T20:54:10.730Z,80.30
2018-03-24T20:56:39.302Z,80.50
2018-03-24T20:59:08.742Z,80.40
2018-03-24T21:01:36.669Z,80.90
2018-03-24T21:04:04.981Z,81.10
2018-03-24T21:06:32.781Z,81.00
2018-03-24T21:09:02.403Z,81.90
2018-03-24T21:11:30.342Z,81.20
2018-03-24T21:13:58.063Z,81.40
2018-03-24T21:16:26.483Z,80.30
2018-03-24T21:18:54.518Z,80.20
2018-03-24T21:21:22.972Z,80.60
2018-03-24T21:23:50.989Z,80.50
2018-03-24T21:26:18.733Z,80.80
2018-03-24T21:28:47.462Z,81.60
2018-03-24T21:31:16.551Z,81.60
2018-03-24T21:33:44.285Z,82.10
2018-03-24T21:36:12.866Z,82.80
2018-03-24T21:38:41.360Z,83.20
2018-03-24T21:41:09.136Z,83.20
2018-03-24T21:43:37.262Z,83.20
2018-03-24T21:46:06.605Z,83.70
2018-03-24T21:48:34.361Z,83.80
2018-03-24T21:51:02.040Z,83.90
2018-03-24T21:53:29.705Z,84.50
2018-03-24T21:55:57.356Z,84.60
2018-03-24T21:58:25.192Z,84.80
2018-03-24T22:00:53.655Z,85.20
2018-03-24T22:03:21.800Z,85.20
2018-03-24T22:05:49.540Z,85.50
2018-03-24T22:08:17.300Z,85.60
2018-03-24T22:10:45.208Z,85.50
2018-03-24T22:13:13.820Z,85.70
2018-03-24T22:15:41.567Z,85.80
2018-03-24T22:18:10.005Z,86.30
2018-03-24T22:20:37.683Z,86.20
2018-03-24T22:23:05.320Z,86.10
2018-03-24T22:25:33.199Z,86.30
2018-03-24T22:28:01.021Z,86.40
2018-03-24T22:30:28.922Z,86.80
2018-03-24T22:32:56.820Z,86.80
2018-03-24T22:35:24.867Z,87.30
2018-03-24T22:37:53.492Z,87.60
2018-03-24T22:40:21.171Z,87.60
2018-03-24T22:42:49.765Z,89.10
2018-03-24T22:45:18.484Z,88.50
2018-03-24T22:47:46.208Z,88.50
2018-03-24T22:50:15.039Z,89.20
2018-03-24T22:52:42.717Z,89.10
2018-03-24T22:55:11.313Z,87.40
2018-03-24T22:57:38.991Z,88.00
2018-03-24T23:00:07.463Z,89.20
2018-03-24T23:02:35.155Z,89.00
2018-03-24T23:05:02.841Z,89.20
2018-03-24T23:07:30.536Z,89.30
2018-03-24T23:09:58.991Z,89.10
2018-03-24T23:12:26.669Z,89.80
2018-03-24T23:14:54.588Z,88.70
2018-03-24T23:17:23.628Z,89.90
2018-03-24T23:19:52.194Z,89.20
2018-03-24T23:22:21.352Z,89.30
2018-03-24T23:24:49.973Z,89.70
2018-03-24T23:27:17.616Z,89.70
2018-03-24T23:29:46.785Z,89.10
2018-03-24T23:32:15.208Z,89.20
2018-03-24T23:34:42.901Z,89.20
2018-03-24T23:37:10.552Z,89.10
2018-03-24T23:39:38.386Z,89.00
2018-03-24T23:42:06.145Z,89.10
2018-03-24T23:44:34.077Z,89.00
2018-03-24T23:47:02.148Z,90.10
2018-03-24T23:49:29.822Z,89.90
2018-03-24T23:51:58.308Z,89.70
2018-03-24T23:54:26.862Z,90.00
2018-03-24T23:56:55.741Z,90.10
2018-03-24T23:59:24.377Z,89.90
